Time;durP1;ratioP1;P1;durP2;ratioP2;P2;SDS_P1;SDS_P2;PMS_P1;PMS_P2;Temp;Humidity;BMP_temperature;BMP_pressure;BME280_temperature;BME280_humidity;BME280_pressure;Samples;Min_cycle;Max_cycle;Signal;HPM_P1;HPM_P2
2022/08/11 00:01:45;;;;;;;;;;;;;;;;;;;;;
2022/08/11 00:04:43;;;;;;;;;12.25;9.75;;;;;29.98;36.39;100679.38;146620;566;45036;-68
2022/08/11 00:07:56;;;;;;;;;;;;;;;;;;;;;
2022/08/11 00:11:43;;;;;;;;;12.75;12.00;;;;;29.17;36.31;100532.97;146619;607;46021;-70
2022/08/11 00:14:46;;;;;;;;;9.25;9.25;;;;;30.00;37.53;100669.53;146609;585;45911;-72
2022/08/11 00:17:45;;;;;;;;;10.25;9.00;;;;;29.94;36.52;100677.72;146621;590;45021;-71
2022/08/11 00:20:45;;;;;;;;;12.00;12.00;;;;;29.83;36.69;100678.00;146610;567;46012;-71
2022/08/11 00:23:42;;;;;;;;;10.50;10.50;;;;;29.83;36.58;100677.16;146611;599;46010;-70
2022/08/11 00:26:41;;;;;;;;;12.75;12.25;;;;;29.89;36.26;100687.66;146609;591;45913;-70
2022/08/11 00:29:44;;;;;;;;;13.50;11.75;;;;;29.95;36.04;100682.13;146608;586;45020;-69
2022/08/11 00:32:41;;;;;;;;;12.25;11.25;;;;;30.05;36.78;100677.37;146609;615;45912;-69
2022/08/11 00:35:45;;;;;;;;;12.50;11.50;;;;;30.11;35.72;100679.88;146612;580;46010;-70
2022/08/11 00:38:54;;;;;;;;;11.75;11.75;;;;;30.17;35.83;100671.66;146608;580;46014;-71
2022/08/11 00:42:25;;;;;;;;;9.00;9.00;;;;;30.22;35.78;100672.44;146611;622;46010;-71
2022/08/11 00:45:31;;;;;;;;;11.75;10.75;;;;;30.30;35.66;100674.87;146614;632;45910;-71
2022/08/11 00:49:13;;;;;;;;;11.50;9.25;;;;;29.52;35.47;100523.03;146615;592;45021;-71
2022/08/11 00:53:05;;;;;;;;;10.75;10.25;;;;;29.53;35.63;100529.25;146613;582;45909;-72
2022/08/11 00:56:56;;;;;;;;;12.75;11.75;;;;;29.48;35.78;100532.06;146607;658;46014;-73
2022/08/11 01:00:22;;;;;;;;;10.75;10.25;;;;;29.40;35.97;100520.72;146609;637;45912;-71
2022/08/11 01:03:43;;;;;;;;;11.00;10.00;;;;;30.26;36.11;100671.41;146607;576;45021;-71
2022/08/11 01:07:13;;;;;;;;;12.50;11.25;;;;;30.26;35.55;100673.22;146604;565;47012;-72
2022/08/11 01:10:45;;;;;;;;;13.75;12.25;;;;;30.28;35.63;100677.59;146613;577;45021;-70
2022/08/11 01:14:35;;;;;;;;;11.50;11.50;;;;;29.44;35.72;100519.75;146609;569;45910;-69
2022/08/11 01:18:14;;;;;;;;;11.50;10.50;;;;;29.40;36.16;100516.25;146611;580;46010;-68
2022/08/11 01:21:57;;;;;;;;;13.25;12.00;;;;;30.25;36.13;100669.69;146608;570;46014;-68
2022/08/11 01:25:27;;;;;;;;;15.25;13.00;;;;;29.40;37.31;100518.94;146611;612;45037;-67
2022/08/11 01:29:08;;;;;;;;;10.75;10.75;;;;;30.24;37.79;100670.56;146609;565;45912;-68
2022/08/11 01:32:27;;;;;;;;;12.00;11.50;;;;;30.20;39.19;100673.41;146613;607;45021;-72
2022/08/11 01:35:57;;;;;;;;;10.00;9.25;;;;;30.13;38.36;100673.56;146608;594;45910;-71
2022/08/11 01:39:25;;;;;;;;;14.25;12.50;;;;;30.10;37.50;100660.28;146606;634;45021;-70
2022/08/11 01:47:01;;;;;;;;;13.00;13.00;;;;;29.33;38.60;100516.50;146620;579;46010;-67
2022/08/11 01:50:28;;;;;;;;;12.25;11.25;;;;;29.32;38.11;100518.31;146606;580;46012;-69
2022/08/11 01:53:56;;;;;;;;;12.50;12.00;;;;;30.22;39.23;100655.50;146613;588;46010;-71
2022/08/11 01:57:42;;;;;;;;;12.50;12.50;;;;;30.23;38.95;100667.97;146607;590;45912;-71
2022/08/11 02:01:02;;;;;;;;;;;;;;;;;;;;;
2022/08/11 02:04:42;;;;;;;;;12.75;11.75;;;;;29.98;38.52;100675.81;146637;572;44025;-70
2022/08/11 02:08:13;;;;;;;;;13.75;12.75;;;;;29.81;38.49;100673.63;146639;575;44020;-71
2022/08/11 02:11:49;;;;;;;;;11.00;11.00;;;;;29.19;40.59;100605.91;146635;594;44913;-71
2022/08/11 02:14:56;;;;;;;;;15.25;13.00;;;;;29.39;41.17;100685.47;146632;614;44037;-69
2022/08/11 02:23:38;;;;;;;;;10.75;10.25;;;;;28.40;39.45;100526.13;146635;665;44868;-69
2022/08/11 02:26:04;;;;;;;;;11.75;10.50;;;;;29.58;38.99;100691.16;146637;577;44913;-68
2022/08/11 02:29:40;;;;;;;;;9.75;9.50;;;;;29.72;37.81;100687.25;146639;642;44020;-69
2022/08/11 02:36:37;;;;;;;;;10.00;10.00;;;;;29.86;39.70;100696.62;146636;593;45020;-68
2022/08/11 02:39:46;;;;;;;;;12.75;11.25;;;;;29.82;42.46;100705.69;146635;564;44913;-71
2022/08/11 02:43:20;;;;;;;;;12.75;12.00;;;;;29.43;47.51;100704.94;146637;614;45010;-70
2022/08/11 02:47:31;;;;;;;;;16.25;15.00;;;;;28.78;43.26;100700.34;146634;575;45895;-72
2022/08/11 02:50:34;;;;;;;;;13.50;13.50;;;;;28.40;49.42;100707.47;146632;604;45010;-71
2022/08/11 02:53:47;;;;;;;;;15.00;13.25;;;;;28.28;50.11;100711.25;146635;570;45912;-69
2022/08/11 02:57:33;;;;;;;;;14.75;12.50;;;;;27.16;47.05;100529.75;146638;563;45010;-67
2022/08/11 03:01:13;;;;;;;;;;;;;;;;;;;;;
2022/08/11 03:04:22;;;;;;;;;13.00;13.00;;;;;27.92;47.10;100699.59;146639;609;44020;-69
2022/08/11 03:07:57;;;;;;;;;14.50;14.50;;;;;27.13;46.90;100547.53;146634;600;45912;-68
2022/08/11 03:19:55;;;;;;;;;11.00;11.00;;;;;27.03;50.07;100546.84;146637;628;44024;-68
2022/08/11 03:24:02;;;;;;;;;;;;;;;;;;;;;
2022/08/11 03:27:36;;;;;;;;;11.75;11.75;;;;;28.07;49.55;100712.59;146629;577;45010;-67
2022/08/11 03:30:56;;;;;;;;;13.75;13.75;;;;;28.07;48.18;100707.28;146635;557;45913;-67
2022/08/11 03:34:19;;;;;;;;;14.50;13.00;;;;;27.06;46.12;100543.25;146638;702;45014;-67
2022/08/11 03:38:09;;;;;;;;;12.75;12.00;;;;;27.02;47.52;100550.41;146635;581;45910;-67
2022/08/11 03:41:55;;;;;;;;;11.25;11.25;;;;;27.12;47.74;100548.44;146639;643;44020;-66
2022/08/11 03:45:23;;;;;;;;;13.75;13.50;;;;;28.19;46.13;100714.09;146633;582;45910;-68
2022/08/11 03:49:12;;;;;;;;;14.00;13.25;;;;;27.39;45.47;100544.41;146638;566;44020;-68
2022/08/11 03:52:51;;;;;;;;;13.50;12.50;;;;;27.47;45.64;100545.09;146634;594;45912;-68
2022/08/11 03:56:26;;;;;;;;;13.00;12.75;;;;;28.45;45.12;100710.03;146639;578;44020;-70
2022/08/11 04:00:08;;;;;;;;;12.50;12.50;;;;;27.56;44.18;100544.03;146636;564;45912;-70
2022/08/11 04:03:34;;;;;;;;;12.00;11.00;;;;;27.74;44.15;100564.94;146612;612;46007;-69
2022/08/11 04:07:16;;;;;;;;;16.50;13.75;;;;;27.86;45.07;100574.50;146604;596;47911;-68
2022/08/11 04:10:45;;;;;;;;;15.00;14.25;;;;;28.77;45.38;100733.28;146609;617;46010;-70
2022/08/11 04:17:57;;;;;;;;;17.25;13.75;;;;;27.78;44.90;100574.62;146613;604;45021;-71
2022/08/11 04:21:46;;;;;;;;;17.75;16.50;;;;;27.77;44.76;100572.91;146605;571;46012;-70
2022/08/11 04:25:17;;;;;;;;;14.75;14.75;;;;;28.70;44.16;100739.69;146613;580;45049;-68
2022/08/11 04:28:58;;;;;;;;;15.25;15.25;;;;;28.81;43.94;100747.44;146607;568;45910;-69
2022/08/11 04:32:40;;;;;;;;;15.75;15.75;;;;;28.98;43.71;100746.13;146613;590;45021;-68
2022/08/11 04:37:30;;;;;;;;;17.50;16.75;;;;;28.25;43.52;100606.44;146608;563;45912;-70
2022/08/11 04:40:13;;;;;;;;;16.25;16.25;;;;;29.26;43.88;100758.81;146608;598;45035;-70
2022/08/11 04:43:57;;;;;;;;;20.75;16.25;;;;;29.35;43.48;100753.25;146609;563;45912;-72
2022/08/11 05:02:59;;;;;;;;;15.25;12.75;;;;;29.56;43.41;100767.81;146609;605;46014;-70
2022/08/11 05:06:34;;;;;;;;;13.75;13.25;;;;;29.66;43.27;100768.50;146607;624;45912;-71
2022/08/11 05:09:55;;;;;;;;;12.75;12.75;;;;;29.75;44.71;100776.28;146613;634;45021;-71
2022/08/11 05:37:04;;;;;;;;;15.25;14.00;;;;;31.32;39.63;100780.44;146612;572;45021;-69
2022/08/11 05:57:05;;;;;;;;;18.50;16.75;;;;;31.08;39.78;100778.59;146613;619;45020;-71
2022/08/11 06:00:28;;;;;;;;;24.75;22.25;;;;;30.89;40.03;100775.63;146608;587;45914;-69
2022/08/11 06:07:08;;;;;;;;;16.25;16.25;;;;;30.60;41.17;100780.06;146609;585;45912;-68
2022/08/11 06:10:15;;;;;;;;;19.25;18.75;;;;;30.55;41.55;100785.53;146611;638;45020;-71
2022/08/11 06:13:22;;;;;;;;;17.50;17.50;;;;;30.51;42.14;100781.22;146610;582;45914;-71
2022/08/11 06:16:24;;;;;;;;;20.25;20.25;;;;;30.46;41.59;100780.47;146613;575;45021;-73
2022/08/11 06:19:20;;;;;;;;;23.75;20.75;;;;;30.42;41.86;100785.97;146610;602;45914;-69
2022/08/11 06:22:26;;;;;;;;;23.00;20.50;;;;;30.37;42.16;100792.34;146606;580;46010;-71
2022/08/11 06:25:35;;;;;;;;;18.50;17.25;;;;;30.40;41.72;100788.69;146608;573;46012;-70
2022/08/11 06:28:48;;;;;;;;;20.75;17.25;;;;;30.47;41.87;100790.28;146614;575;45021;-70
2022/08/11 06:31:54;;;;;;;;;17.00;15.50;;;;;30.53;41.51;100783.84;146610;605;45915;-75
2022/08/11 06:35:22;;;;;;;;;16.50;15.00;;;;;30.52;39.85;100792.78;146614;563;45020;-75
2022/08/11 06:38:41;;;;;;;;;16.50;15.00;;;;;30.47;40.67;100792.03;146607;642;45915;-75
2022/08/11 06:42:15;;;;;;;;;17.75;17.50;;;;;29.40;40.33;100630.25;146609;589;46010;-75
2022/08/11 06:45:29;;;;;;;;;17.50;16.75;;;;;30.33;40.63;100798.69;146607;565;45914;-77
2022/08/11 06:48:34;;;;;;;;;16.50;16.50;;;;;30.30;40.69;100795.25;146612;699;45020;-74
2022/08/11 06:51:40;;;;;;;;;16.50;14.75;;;;;30.27;40.81;100798.88;146609;617;45915;-76
2022/08/11 06:54:43;;;;;;;;;17.00;16.00;;;;;30.25;41.23;100800.72;146606;595;45020;-76
2022/08/11 07:01:15;;;;;;;;;16.50;14.50;;;;;30.30;41.97;100808.59;146609;577;46014;-76
2022/08/11 07:04:19;;;;;;;;;15.75;15.75;;;;;30.36;42.58;100814.66;146636;587;44912;-75
2022/08/11 07:15:53;;;;;;;;;17.75;16.25;;;;;30.96;40.81;100811.97;146638;627;45014;-76
2022/08/11 07:28:57;;;;;;;;;15.25;15.00;;;;;32.69;36.93;100807.75;146632;574;44020;-76
2022/08/11 07:32:02;;;;;;;;;15.75;15.00;;;;;32.97;35.98;100808.41;146632;595;45914;-74
2022/08/11 07:35:13;;;;;;;;;16.50;14.75;;;;;33.10;36.06;100804.28;146636;606;44021;-73
2022/08/11 07:38:42;;;;;;;;;14.75;12.50;;;;;33.20;36.25;100812.84;146635;607;44038;-76
2022/08/11 07:41:42;;;;;;;;;14.00;13.75;;;;;33.20;36.38;100809.28;146630;569;45011;-77
2022/08/11 07:54:25;;;;;;;;;14.75;14.00;;;;;33.13;37.63;100808.66;146637;569;44020;-80
2022/08/11 08:20:54;;;;;;;;;15.25;14.25;;;;;33.14;38.47;100805.03;146638;571;45010;-81
2022/08/11 08:23:51;;;;;;;;;14.25;12.25;;;;;33.11;38.01;100807.84;146636;640;44943;-80
2022/08/11 08:27:14;;;;;;;;;;;;;;;;;;;;;
2022/08/11 08:33:37;;;;;;;;;14.75;14.50;;;;;33.37;37.74;100804.09;146631;662;45014;-80
2022/08/11 08:36:31;;;;;;;;;11.50;11.50;;;;;33.38;38.02;100810.31;146635;580;45915;-81
2022/08/11 08:39:26;;;;;;;;;10.75;10.25;;;;;33.39;37.17;100809.38;146638;604;45010;-80
2022/08/11 08:42:42;;;;;;;;;12.75;11.25;;;;;33.43;37.13;100809.19;146633;579;45914;-81
2022/08/11 08:45:43;;;;;;;;;15.75;15.75;;;;;33.43;37.95;100811.00;146638;577;44020;-82
2022/08/11 08:48:59;;;;;;;;;15.75;13.75;;;;;33.45;38.24;100799.22;146635;690;45012;-79
2022/08/11 08:51:57;;;;;;;;;14.75;14.25;;;;;33.49;38.08;100800.88;146638;605;44026;-80
2022/08/11 08:55:05;;;;;;;;;14.50;10.75;;;;;33.60;37.44;100796.87;146636;569;45914;-79
2022/08/11 08:58:02;;;;;;;;;12.50;11.50;;;;;33.71;38.18;100799.94;146638;598;44021;-79
2022/08/11 09:01:05;;;;;;;;;12.75;11.75;;;;;33.77;37.64;100800.59;146635;618;45914;-78
2022/08/11 09:04:01;;;;;;;;;11.25;11.25;;;;;33.75;38.37;100798.91;146606;590;45021;-79
2022/08/11 09:15:17;;;;;;;;;17.75;14.75;;;;;33.02;38.51;100794.78;146607;624;45914;-79
2022/08/11 09:18:21;;;;;;;;;12.75;12.50;;;;;32.72;39.77;100786.13;146610;608;46020;-78
2022/08/11 09:21:31;;;;;;;;;10.75;10.25;;;;;32.56;40.15;100799.28;146605;569;46012;-77
2022/08/11 09:27:43;;;;;;;;;12.00;12.00;;;;;31.95;40.87;100792.56;146607;592;46013;-77
2022/08/11 09:30:35;;;;;;;;;13.00;13.00;;;;;31.76;41.59;100794.13;146609;583;46010;-76
2022/08/11 09:33:40;;;;;;;;;12.00;12.00;;;;;31.62;41.37;100791.06;146609;605;45914;-78
2022/08/11 09:46:34;;;;;;;;;13.25;12.75;;;;;31.51;42.80;100788.75;146608;600;45912;-78
2022/08/11 09:49:27;;;;;;;;;10.75;10.75;;;;;31.28;43.02;100801.09;146611;569;46010;-78
2022/08/11 09:52:35;;;;;;;;;11.75;11.25;;;;;31.13;42.50;100795.38;146609;598;45913;-77
2022/08/11 09:55:37;;;;;;;;;12.25;10.00;;;;;31.03;44.05;100784.97;146611;563;45020;-77
2022/08/11 09:58:47;;;;;;;;;17.00;17.00;;;;;31.02;42.75;100779.66;146608;571;45896;-77
2022/08/11 10:02:05;;;;;;;;;10.25;9.25;;;;;30.21;41.52;100627.00;146614;569;45020;-78
2022/08/11 10:08:23;;;;;;;;;15.25;14.00;;;;;31.14;42.26;100775.69;146606;563;45020;-80
2022/08/11 10:11:27;;;;;;;;;16.50;14.00;;;;;31.08;41.11;100766.06;146606;625;46012;-75
2022/08/11 10:21:23;;;;;;;;;17.50;15.50;;;;;32.27;39.23;100765.47;146613;648;45021;-77
2022/08/11 10:27:32;;;;;;;;;17.00;17.00;;;;;32.94;37.74;100762.84;146610;631;46013;-81
2022/08/11 10:34:00;;;;;;;;;13.25;13.25;;;;;33.21;37.49;100760.88;146613;595;45021;-77
2022/08/11 10:37:04;;;;;;;;;15.00;15.00;;;;;33.36;37.47;100759.31;146606;588;45912;-78
2022/08/11 10:39:59;;;;;;;;;14.75;14.00;;;;;33.44;37.49;100754.50;146604;632;46010;-77
2022/08/11 10:43:09;;;;;;;;;15.50;15.25;;;;;33.51;37.60;100752.44;146606;566;46012;-77
2022/08/11 10:49:33;;;;;;;;;13.75;13.75;;;;;33.50;36.87;100750.69;146609;614;45910;-79
2022/08/11 10:59:08;;;;;;;;;19.00;17.75;;;;;33.59;36.78;100746.75;146613;606;45020;-78
2022/08/11 11:02:16;;;;;;;;;13.75;13.00;;;;;33.62;36.95;100738.53;146605;621;46012;-77
2022/08/11 11:05:23;;;;;;;;;15.00;14.00;;;;;33.68;36.75;100736.44;146612;615;45021;-76
2022/08/11 11:18:34;;;;;;;;;13.25;13.25;;;;;33.31;37.41;100729.97;146613;681;45021;-75
2022/08/11 11:21:34;;;;;;;;;13.25;13.25;;;;;33.37;37.88;100728.81;146608;564;45016;-77
2022/08/11 11:24:57;;;;;;;;;16.00;14.75;;;;;33.48;37.16;100722.97;146612;629;45020;-70
2022/08/11 11:28:53;;;;;;;;;11.75;11.75;;;;;33.59;37.06;100730.62;146609;619;45911;-71
2022/08/11 11:32:39;;;;;;;;;16.00;14.50;;;;;33.56;36.99;100721.72;146610;575;45020;-72
2022/08/11 11:36:16;;;;;;;;;7.75;7.75;;;;;33.50;37.53;100716.62;146606;566;46012;-71
2022/08/11 11:39:11;;;;;;;;;14.00;12.75;;;;;33.37;37.35;100717.22;146620;565;45022;-73
2022/08/11 11:42:10;;;;;;;;;15.50;13.75;;;;;33.13;38.14;100713.75;146607;598;45913;-71
2022/08/11 11:45:26;;;;;;;;;15.00;14.00;;;;;32.02;38.98;100569.75;146603;624;46010;-72
2022/08/11 11:48:22;;;;;;;;;13.50;13.50;;;;;32.72;39.11;100722.56;146605;602;46012;-72
2022/08/11 11:51:22;;;;;;;;;13.75;13.50;;;;;32.79;38.31;100717.81;146613;609;45020;-72
2022/08/11 11:54:19;;;;;;;;;13.75;13.75;;;;;32.86;38.74;100711.25;146608;573;46012;-71
2022/08/11 12:04:01;;;;;;;;;14.25;14.00;;;;;32.14;42.41;100714.09;146638;702;45011;-73
2022/08/11 12:10:34;;;;;;;;;16.25;13.50;;;;;31.88;41.94;100696.28;146636;575;45011;-72
2022/08/11 12:13:40;;;;;;;;;13.75;13.75;;;;;31.94;41.19;100706.81;146634;601;45012;-71
2022/08/11 12:16:37;;;;;;;;;13.75;13.75;;;;;31.95;41.64;100693.34;146631;656;44020;-71
2022/08/11 12:19:54;;;;;;;;;15.75;14.50;;;;;32.11;40.97;100701.66;146635;616;44915;-71
2022/08/11 12:29:33;;;;;;;;;14.00;13.25;;;;;32.85;40.07;100671.91;146639;600;44020;-71
2022/08/11 12:32:38;;;;;;;;;14.00;13.00;;;;;32.89;39.43;100666.34;146635;729;45013;-70
2022/08/11 12:35:47;;;;;;;;;12.50;12.00;;;;;32.93;39.54;100667.09;146639;594;44021;-73
2022/08/11 12:38:54;;;;;;;;;12.00;11.25;;;;;32.89;39.08;100665.47;146633;597;45914;-71
2022/08/11 12:45:31;;;;;;;;;16.50;14.25;;;;;32.90;39.09;100648.44;146634;621;45012;-70
2022/08/11 12:52:05;;;;;;;;;15.00;13.00;;;;;32.77;38.94;100649.88;146636;704;44912;-71
2022/08/11 12:58:41;;;;;;;;;13.25;11.50;;;;;32.69;39.45;100646.66;146635;687;45014;-71
2022/08/11 13:05:03;;;;;;;;;9.00;9.00;;;;;32.64;40.02;100644.16;146609;582;46012;-73
2022/08/11 13:08:29;;;;;;;;;16.00;14.25;;;;;31.76;39.24;100488.50;146617;701;46014;-70
2022/08/11 13:14:36;;;;;;;;;15.25;14.00;;;;;32.61;40.31;100629.03;146612;593;46010;-72
2022/08/11 13:18:04;;;;;;;;;14.00;12.25;;;;;32.59;40.79;100624.69;146609;588;45915;-71
2022/08/11 13:21:11;;;;;;;;;15.50;15.50;;;;;32.55;39.84;100639.16;146604;576;46020;-72
2022/08/11 13:24:07;;;;;;;;;12.25;12.25;;;;;32.51;40.75;100637.53;146605;613;46012;-70
2022/08/11 13:27:07;;;;;;;;;14.75;14.75;;;;;32.54;40.19;100629.38;146612;570;45021;-72
2022/08/11 13:33:25;;;;;;;;;13.75;12.25;;;;;32.55;39.43;100628.41;146612;560;45021;-74
2022/08/11 13:36:27;;;;;;;;;14.00;14.00;;;;;32.62;40.53;100619.19;146607;570;45914;-72
2022/08/11 13:39:32;;;;;;;;;14.50;13.75;;;;;32.66;39.88;100613.63;146611;616;46011;-73
2022/08/11 13:42:28;;;;;;;;;10.75;10.75;;;;;32.69;41.41;100619.81;146608;668;46014;-73
2022/08/11 13:45:31;;;;;;;;;16.25;15.75;;;;;32.67;40.62;100614.47;146613;638;45020;-71
2022/08/11 13:48:45;;;;;;;;;;;;;;;;;;;;;
2022/08/11 13:51:44;;;;;;;;;11.00;11.00;;;;;32.53;39.52;100614.22;146606;565;45020;-72
2022/08/11 13:54:52;;;;;;;;;16.50;15.50;;;;;32.49;40.17;100607.19;146609;574;45913;-71
2022/08/11 13:57:56;;;;;;;;;13.75;13.00;;;;;32.45;40.54;100613.63;146609;608;45020;-72
2022/08/11 14:01:00;;;;;;;;;13.75;13.75;;;;;32.43;40.24;100611.91;146609;584;45912;-72
2022/08/11 14:03:57;;;;;;;;;17.50;15.25;;;;;32.34;40.02;100606.00;146639;586;44021;-73
2022/08/11 14:06:59;;;;;;;;;13.50;13.00;;;;;32.31;40.61;100614.19;146636;632;45911;-74
2022/08/11 14:10:06;;;;;;;;;14.50;14.50;;;;;32.28;40.80;100608.94;146638;611;44050;-70
2022/08/11 14:17:00;;;;;;;;;14.00;13.00;;;;;32.30;40.22;100604.38;146638;629;44021;-73
2022/08/11 14:19:58;;;;;;;;;14.75;14.75;;;;;32.31;39.39;100616.87;146623;563;46012;-71
2022/08/11 14:22:56;;;;;;;;;15.50;14.50;;;;;32.34;39.03;100614.06;146632;569;45015;-67
2022/08/11 14:29:23;;;;;;;;;16.00;14.75;;;;;32.33;39.10;100615.84;146638;669;44020;-70
2022/08/11 14:32:32;;;;;;;;;15.75;15.00;;;;;32.34;39.00;100620.28;146633;623;45914;-71
2022/08/11 14:35:37;;;;;;;;;14.75;14.75;;;;;31.72;39.89;100513.72;146638;599;45014;-71
2022/08/11 14:38:33;;;;;;;;;18.50;16.75;;;;;32.39;40.08;100617.41;146632;564;45914;-71
2022/08/11 14:48:17;;;;;;;;;17.75;17.25;;;;;32.40;38.23;100619.16;146640;567;44021;-69
2022/08/11 14:51:10;;;;;;;;;15.50;15.00;;;;;32.37;38.76;100617.50;146636;580;45913;-70
2022/08/11 14:57:27;;;;;;;;;18.75;17.75;;;;;32.38;38.22;100610.31;146637;651;45012;-72
2022/08/11 15:00:27;;;;;;;;;19.00;18.00;;;;;32.39;38.10;100615.59;146639;583;45015;-69
2022/08/11 15:03:37;;;;;;;;;16.75;16.75;;;;;32.46;38.16;100601.97;146612;581;46014;-71
2022/08/11 15:06:32;;;;;;;;;19.00;18.25;;;;;32.41;37.29;100610.19;146613;565;45020;-71
2022/08/11 15:09:43;;;;;;;;;18.75;18.75;;;;;32.32;38.01;100599.81;146608;601;45915;-71
2022/08/11 15:12:50;;;;;;;;;19.75;18.75;;;;;32.26;38.20;100609.00;146613;717;45020;-69
2022/08/11 15:18:58;;;;;;;;;20.75;19.50;;;;;32.17;38.04;100602.19;146613;589;45020;-68
2022/08/11 15:25:42;;;;;;;;;19.50;19.25;;;;;31.94;38.31;100597.75;146606;578;45050;-70
2022/08/11 15:39:26;;;;;;;;;16.25;16.25;;;;;30.89;42.62;100604.28;146612;705;45021;-68
2022/08/11 15:45:47;;;;;;;;;11.75;11.00;;;;;30.51;45.42;100603.75;146611;569;45021;-69
2022/08/11 15:49:42;;;;;;;;;12.25;12.25;;;;;29.51;43.15;100445.62;146608;566;45483;-69
2022/08/11 15:52:52;;;;;;;;;12.75;12.50;;;;;30.27;45.82;100610.78;146611;564;45912;-68
2022/08/11 15:55:54;;;;;;;;;15.00;14.75;;;;;30.22;45.25;100612.72;146608;621;45914;-67
2022/08/11 16:05:53;;;;;;;;;;;;;;;;;;;;;
2022/08/11 16:08:56;;;;;;;;;12.25;11.00;;;;;29.82;46.34;100606.78;146607;590;45913;-69
2022/08/11 16:12:02;;;;;;;;;12.00;12.00;;;;;29.68;46.36;100607.19;146612;610;46014;-67
2022/08/11 16:18:23;;;;;;;;;11.25;11.25;;;;;29.69;46.34;100605.41;146606;658;46010;-68
2022/08/11 16:21:32;;;;;;;;;13.00;11.25;;;;;29.76;45.49;100600.75;146601;595;46003;-68
2022/08/11 16:24:56;;;;;;;;;13.00;12.25;;;;;29.82;46.57;100604.09;146601;608;46010;-69
2022/08/11 16:27:57;;;;;;;;;13.75;13.75;;;;;29.90;46.40;100607.41;146599;645;45913;-70
2022/08/11 16:31:15;;;;;;;;;11.75;11.75;;;;;29.98;45.38;100606.31;146606;589;45022;-70
2022/08/11 16:40:52;;;;;;;;;10.75;10.75;;;;;30.07;45.32;100612.25;146599;598;47012;-69
2022/08/11 16:47:17;;;;;;;;;12.50;10.75;;;;;30.12;44.74;100620.13;146601;654;46014;-67
2022/08/11 16:50:15;;;;;;;;;10.75;10.25;;;;;30.19;44.65;100623.47;146605;570;45020;-68
2022/08/11 16:53:10;;;;;;;;;12.00;11.00;;;;;30.21;44.31;100629.69;146603;683;45914;-68
2022/08/11 16:56:10;;;;;;;;;12.75;11.00;;;;;30.31;44.33;100626.69;146606;587;46010;-69
2022/08/11 16:59:13;;;;;;;;;13.75;11.75;;;;;30.36;44.08;100632.75;146602;601;45914;-69
2022/08/11 17:16:06;;;;;;;;;13.00;12.50;;;;;30.40;45.20;100640.66;146606;617;45021;-69
2022/08/11 17:19:27;;;;;;;;;11.00;11.00;;;;;30.31;44.84;100639.16;146601;624;45914;-68
2022/08/11 17:25:50;;;;;;;;;10.50;10.00;;;;;30.25;44.07;100645.59;146601;615;45912;-68
2022/08/11 17:28:55;;;;;;;;;12.00;12.00;;;;;30.30;44.21;100656.16;146603;579;46010;-69
2022/08/11 17:35:37;;;;;;;;;12.25;11.00;;;;;29.53;44.07;100502.53;146602;571;46010;-68
2022/08/11 17:38:36;;;;;;;;;12.50;12.25;;;;;30.39;44.74;100661.19;146601;620;46017;-68
2022/08/11 17:48:24;;;;;;;;;15.25;15.00;;;;;30.03;44.80;100681.88;146606;565;46010;-68
2022/08/11 18:01:32;;;;;;;;;16.00;14.75;;;;;29.50;44.58;100703.84;146605;582;45020;-70
2022/08/11 18:04:32;;;;;;;;;15.75;15.50;;;;;29.39;45.31;100703.28;146627;571;45914;-69
